Time;durP1;ratioP1;P1;durP2;ratioP2;P2;SDS_P1;SDS_P2;PMS_P1;PMS_P2;Temp;Humidity;BMP_temperature;BMP_pressure;BME280_temperature;BME280_humidity;BME280_pressure;Samples;Min_cycle;Max_cycle;Signal;HPM_P1;HPM_P2
2022/07/14 00:01:15;;;;;;;14.65;4.30;;;;;;;16.73;75.06;101889.44;4966315;28;20113;-82
2022/07/14 00:03:40;;;;;;;12.40;4.30;;;;;;;16.64;75.80;101896.19;4962625;28;20412;-82
2022/07/14 00:06:05;;;;;;;11.00;3.92;;;;;;;16.66;75.49;101887.06;4965691;28;20033;-82
2022/07/14 00:08:31;;;;;;;7.43;3.63;;;;;;;16.69;75.66;101883.34;4956081;28;20269;-82
2022/07/14 00:10:56;;;;;;;14.90;4.00;;;;;;;16.66;75.51;101872.75;4967009;28;20031;-82
2022/07/14 00:13:21;;;;;;;12.60;3.88;;;;;;;16.64;75.40;101886.31;4967761;28;20073;-82
2022/07/14 00:15:47;;;;;;;11.00;4.53;;;;;;;16.58;76.06;101894.72;4967796;28;20041;-82
2022/07/14 00:18:12;;;;;;;17.48;5.78;;;;;;;16.54;76.23;101889.63;4966802;28;20033;-82
2022/07/14 00:20:37;;;;;;;16.70;8.68;;;;;;;16.48;76.39;101863.97;4966511;28;20023;-81
2022/07/14 00:23:03;;;;;;;16.55;10.38;;;;;;;16.41;76.31;101855.41;4964654;28;20019;-82
2022/07/14 00:25:28;;;;;;;25.40;16.77;;;;;;;16.33;77.08;101854.13;4966004;28;20035;-82
2022/07/14 00:27:54;;;;;;;17.38;10.38;;;;;;;16.33;76.90;101846.94;4964937;28;20037;-82
2022/07/14 00:30:20;;;;;;;16.05;7.47;;;;;;;16.28;77.20;101838.28;4967297;28;20030;-82
2022/07/14 00:32:45;;;;;;;15.52;4.93;;;;;;;16.34;76.95;101856.72;4964933;28;20034;-82
2022/07/14 00:35:11;;;;;;;16.58;5.07;;;;;;;16.32;77.30;101869.38;4964181;28;20093;-82
2022/07/14 00:37:36;;;;;;;14.27;5.47;;;;;;;16.33;77.12;101871.13;4980515;28;20026;-81
2022/07/14 00:40:04;;;;;;;12.98;4.60;;;;;;;16.42;77.39;101869.69;4968407;28;20055;-82
2022/07/14 00:42:33;;;;;;;13.13;4.38;;;;;;;16.46;77.02;101878.47;4963748;28;20035;-82
2022/07/14 00:45:00;;;;;;;14.02;4.60;;;;;;;16.53;76.61;101874.47;4966713;28;20027;-82
2022/07/14 00:47:25;;;;;;;13.57;4.50;;;;;;;16.59;76.47;101874.06;4966218;28;20365;-82
2022/07/14 00:49:52;;;;;;;15.18;5.22;;;;;;;16.55;76.23;101880.59;4951244;28;20034;-82
2022/07/14 00:52:18;;;;;;;9.10;4.30;;;;;;;16.56;76.23;101882.34;4964691;28;20025;-82
2022/07/14 00:54:43;;;;;;;13.80;4.40;;;;;;;16.64;76.04;101883.63;4961163;28;20039;-82
2022/07/14 00:57:08;;;;;;;15.32;4.80;;;;;;;16.66;76.41;101887.06;4965707;28;20320;-82
2022/07/14 00:59:34;;;;;;;11.82;4.40;;;;;;;16.65;76.05;101881.78;4966176;28;20421;-82
2022/07/14 01:01:59;;;;;;;13.55;4.95;;;;;;;16.63;75.77;101878.31;4965433;28;20043;-82
2022/07/14 01:04:25;;;;;;;12.07;4.32;;;;;;;16.73;75.61;101894.81;4965591;28;20459;-82
2022/07/14 01:06:50;;;;;;;11.38;4.18;;;;;;;16.75;75.96;101885.69;4965511;28;20031;-82
2022/07/14 01:09:15;;;;;;;11.90;4.57;;;;;;;16.75;75.74;101887.50;4971252;28;20042;-82
2022/07/14 01:11:41;;;;;;;10.93;4.43;;;;;;;16.74;75.76;101893.84;4968770;28;20053;-82
2022/07/14 01:14:06;;;;;;;16.55;4.65;;;;;;;16.70;75.62;101895.81;4969396;28;20029;-82
2022/07/14 01:16:31;;;;;;;15.35;4.60;;;;;;;16.61;75.88;101897.22;4968688;28;20097;-83
2022/07/14 01:18:56;;;;;;;12.88;4.35;;;;;;;16.54;76.34;101893.16;4984208;28;20046;-83
2022/07/14 01:21:22;;;;;;;14.02;4.45;;;;;;;16.57;76.04;101905.56;4966675;28;20038;-82
2022/07/14 01:23:47;;;;;;;14.90;4.47;;;;;;;16.58;76.12;101900.09;4967905;28;20476;-82
2022/07/14 01:26:12;;;;;;;10.75;4.07;;;;;;;16.60;76.04;101900.88;4962825;28;20039;-82
2022/07/14 01:28:37;;;;;;;12.70;4.45;;;;;;;16.59;76.25;101900.94;4968985;28;20027;-80
2022/07/14 01:31:03;;;;;;;10.25;3.95;;;;;;;16.60;76.46;101910.78;4968370;28;20050;-80
2022/07/14 01:33:29;;;;;;;9.02;3.92;;;;;;;16.58;76.42;101907.28;4968656;28;20077;-82
2022/07/14 01:35:54;;;;;;;10.15;4.30;;;;;;;16.47;76.66;101893.63;4968792;28;20521;-81
2022/07/14 01:38:20;;;;;;;15.07;4.22;;;;;;;16.44;76.70;101889.31;4967737;28;20023;-82
2022/07/14 01:40:45;;;;;;;11.90;4.30;;;;;;;16.46;76.77;101897.25;4966916;28;20035;-81
2022/07/14 01:43:10;;;;;;;15.15;4.28;;;;;;;16.51;76.71;101895.16;4969950;28;20034;-82
2022/07/14 01:45:36;;;;;;;12.50;3.95;;;;;;;16.50;76.72;101898.81;4970668;28;20398;-82
2022/07/14 01:48:01;;;;;;;12.85;4.30;;;;;;;16.41;77.12;101887.66;4969837;28;20019;-81
2022/07/14 01:50:27;;;;;;;13.32;4.25;;;;;;;16.42;76.81;101886.69;4967037;28;20029;-82
2022/07/14 01:52:52;;;;;;;13.15;4.13;;;;;;;16.49;76.63;101878.28;4964055;28;20032;-81
2022/07/14 01:55:17;;;;;;;12.18;4.13;;;;;;;16.46;76.79;101878.47;4964896;28;20038;-82
2022/07/14 01:57:43;;;;;;;12.10;4.20;;;;;;;16.48;76.53;101877.41;4962022;28;20110;-81
2022/07/14 02:00:09;;;;;;;13.02;4.93;;;;;;;16.36;77.10;101891.56;4967184;28;20035;-81
2022/07/14 02:02:34;;;;;;;12.40;4.53;;;;;;;16.33;77.28;101891.75;4965386;28;20496;-81
2022/07/14 02:04:59;;;;;;;19.00;5.20;;;;;;;16.27;77.78;101881.38;4968035;28;20041;-81
2022/07/14 02:07:25;;;;;;;15.60;5.32;;;;;;;16.17;78.00;101868.44;4973554;28;20043;-82
2022/07/14 02:12:34;;;;;;;13.15;4.75;;;;;;;16.09;78.44;101867.16;4969356;28;20105;-82
2022/07/14 02:14:59;;;;;;;13.05;4.80;;;;;;;16.05;78.79;101870.97;4969574;28;20790;-81
2022/07/14 02:17:24;;;;;;;9.77;4.43;;;;;;;16.02;78.85;101881.91;4968213;28;20026;-81
2022/07/14 02:19:50;;;;;;;13.88;5.03;;;;;;;15.88;79.29;101886.25;4970393;28;20027;-81
2022/07/14 02:22:15;;;;;;;15.18;4.78;;;;;;;15.79;79.65;101896.63;4966839;28;20041;-81
2022/07/14 02:24:41;;;;;;;15.82;6.00;;;;;;;15.74;80.13;101894.22;4967111;28;20460;-82
2022/07/14 02:27:07;;;;;;;11.75;4.95;;;;;;;15.74;80.21;101887.97;4967049;28;20034;-81
2022/07/14 02:29:33;;;;;;;13.15;5.20;;;;;;;15.71;80.12;101889.00;4965237;28;20035;-81
2022/07/14 02:31:58;;;;;;;12.73;4.70;;;;;;;15.66;80.23;101885.72;4964154;28;20532;-81
2022/07/14 02:34:23;;;;;;;11.50;4.57;;;;;;;15.59;80.64;101881.59;4968466;28;20046;-81
2022/07/14 02:36:49;;;;;;;11.15;5.30;;;;;;;15.57;80.51;101880.81;4968730;28;20126;-81
2022/07/14 02:39:14;;;;;;;11.45;4.90;;;;;;;15.51;80.51;101876.69;4968213;28;20038;-81
2022/07/14 02:41:43;;;;;;;15.20;5.72;;;;;;;15.49;80.72;101866.97;4963005;28;20035;-81
2022/07/14 02:44:08;;;;;;;14.05;5.53;;;;;;;15.49;81.00;101872.34;4969023;28;20027;-81
2022/07/14 02:46:35;;;;;;;13.55;5.07;;;;;;;15.40;81.35;101866.53;4964919;28;20057;-81
2022/07/14 02:49:00;;;;;;;16.48;5.10;;;;;;;15.40;81.25;101871.88;4968560;28;20034;-82
2022/07/14 02:51:25;;;;;;;17.15;5.25;;;;;;;15.36;81.47;101873.00;4967562;28;20400;-82
2022/07/14 02:53:51;;;;;;;16.33;5.63;;;;;;;15.34;81.32;101853.47;4965775;28;20070;-82
2022/07/14 02:56:16;;;;;;;13.52;5.90;;;;;;;15.38;81.24;101863.06;4969030;28;20031;-81
2022/07/14 02:58:41;;;;;;;11.35;5.45;;;;;;;15.29;81.65;101857.31;4968797;28;20448;-82
2022/07/14 03:01:08;;;;;;;12.63;5.22;;;;;;;15.30;81.67;101857.25;4965293;28;20037;-82
2022/07/14 03:03:34;;;;;;;15.32;5.50;;;;;;;15.23;81.68;101845.13;4968418;28;20034;-82
2022/07/14 03:06:06;;;;;;;14.75;5.60;;;;;;;15.17;82.15;101862.44;4967930;28;20042;-81
2022/07/14 03:08:32;;;;;;;13.65;6.18;;;;;;;15.13;82.21;101851.91;4967431;28;20130;-82
2022/07/14 03:10:57;;;;;;;11.45;5.10;;;;;;;15.07;82.71;101863.00;4964089;28;20033;-81
2022/07/14 03:13:23;;;;;;;12.45;5.47;;;;;;;15.02;82.70;101859.69;4967425;28;20031;-82
2022/07/14 03:15:48;;;;;;;13.02;5.90;;;;;;;14.90;83.08;101855.84;4962066;28;20563;-81
2022/07/14 03:18:13;;;;;;;13.15;5.50;;;;;;;14.81;83.36;101853.66;4962431;28;20035;-82
2022/07/14 03:20:39;;;;;;;13.10;6.30;;;;;;;14.80;83.49;101858.16;4961879;28;20708;-82
2022/07/14 03:23:04;;;;;;;17.40;6.45;;;;;;;14.67;83.74;101836.50;4967556;28;20388;-82
2022/07/14 03:25:30;;;;;;;12.38;5.65;;;;;;;14.72;83.52;101844.28;4966371;28;20030;-82
2022/07/14 03:27:56;;;;;;;15.00;5.85;;;;;;;14.67;84.11;101843.63;4967908;28;20065;-82
2022/07/14 03:30:21;;;;;;;13.77;5.75;;;;;;;14.64;83.87;101835.78;4964496;28;20042;-82
2022/07/14 03:32:47;;;;;;;14.48;6.00;;;;;;;14.56;84.50;101832.63;4965487;28;20030;-82
2022/07/14 03:35:12;;;;;;;14.57;6.22;;;;;;;14.47;84.96;101827.72;4967038;28;20046;-82
2022/07/14 03:37:37;;;;;;;13.25;5.80;;;;;;;14.43;85.25;101829.69;4966407;28;20042;-81
2022/07/14 03:40:04;;;;;;;16.55;6.20;;;;;;;14.31;85.58;101831.16;4966425;28;20065;-81
2022/07/14 03:42:30;;;;;;;14.75;6.00;;;;;;;14.28;86.15;101834.00;4965667;28;20080;-81
2022/07/14 03:44:55;;;;;;;17.27;6.47;;;;;;;14.24;86.27;101828.88;4966472;28;20035;-82
2022/07/14 03:47:21;;;;;;;16.40;6.70;;;;;;;14.26;86.30;101837.72;4965849;28;20027;-81
2022/07/14 03:49:47;;;;;;;14.13;6.30;;;;;;;14.34;85.94;101836.38;4962219;28;20470;-81
2022/07/14 03:52:12;;;;;;;15.18;6.13;;;;;;;14.34;85.53;101839.06;4963039;28;20050;-81
2022/07/14 03:54:37;;;;;;;17.88;6.57;;;;;;;14.36;85.91;101844.31;4966057;28;20034;-81
2022/07/14 03:57:04;;;;;;;14.95;6.53;;;;;;;14.38;85.19;101854.03;4967507;28;20030;-82
2022/07/14 03:59:30;;;;;;;15.93;5.78;;;;;;;14.34;85.62;101849.78;4966243;28;20045;-81
2022/07/14 04:01:55;;;;;;;15.80;5.75;;;;;;;14.41;85.50;101858.34;4964739;28;20334;-81
2022/07/14 04:04:21;;;;;;;16.85;6.47;;;;;;;14.31;85.18;101859.78;4967002;28;20027;-82
2022/07/14 04:06:46;;;;;;;14.07;5.90;;;;;;;14.36;84.89;101866.63;4966304;28;20023;-82
2022/07/14 04:09:12;;;;;;;15.25;6.22;;;;;;;14.29;85.89;101869.66;4965866;28;20344;-82
2022/07/14 04:11:37;;;;;;;15.75;6.95;;;;;;;14.18;86.09;101879.13;4965428;28;20041;-82
2022/07/14 04:14:02;;;;;;;15.80;6.70;;;;;;;14.14;86.28;101880.22;4965353;28;20035;-82
2022/07/14 04:16:27;;;;;;;13.70;6.45;;;;;;;14.09;86.72;101870.69;4965512;28;20109;-82
2022/07/14 04:18:53;;;;;;;14.10;5.70;;;;;;;14.11;86.64;101866.97;4966548;28;20037;-82
2022/07/14 04:21:18;;;;;;;17.33;6.82;;;;;;;14.14;86.20;101877.53;4968118;28;20117;-82
2022/07/14 04:23:43;;;;;;;15.80;6.60;;;;;;;14.25;86.23;101877.00;4961647;28;20058;-82
2022/07/14 04:26:09;;;;;;;12.82;6.35;;;;;;;14.26;86.00;101865.34;4969263;28;20115;-82
2022/07/14 04:28:34;;;;;;;15.40;6.68;;;;;;;14.37;85.58;101864.81;4967823;28;20035;-82
2022/07/14 04:30:59;;;;;;;16.55;6.82;;;;;;;14.35;85.67;101870.25;4969053;28;20539;-82
2022/07/14 04:33:25;;;;;;;16.17;6.93;;;;;;;14.35;85.66;101870.25;4964903;28;20030;-82
2022/07/14 04:35:50;;;;;;;15.98;6.65;;;;;;;14.36;85.49;101865.75;4965005;28;20122;-82
2022/07/14 04:38:16;;;;;;;17.70;6.70;;;;;;;14.40;85.51;101861.97;4964654;28;20066;-82
2022/07/14 04:40:52;;;;;;;13.55;6.70;;;;;;;14.37;85.49;101860.31;4962791;28;20120;-82
2022/07/14 04:43:18;;;;;;;15.77;7.00;;;;;;;14.35;85.56;101853.31;4969354;28;20041;-82
2022/07/14 04:45:47;;;;;;;19.63;7.13;;;;;;;14.29;85.95;101857.16;4970819;28;20240;-82
2022/07/14 04:48:13;;;;;;;16.23;6.50;;;;;;;14.31;85.87;101844.56;4967954;28;20085;-82
2022/07/14 04:53:22;;;;;;;16.38;7.00;;;;;;;14.29;86.17;101841.06;4971083;28;20057;-82
2022/07/14 04:55:47;;;;;;;17.45;7.38;;;;;;;14.31;86.13;101841.88;4971627;28;20469;-82
2022/07/14 04:58:13;;;;;;;19.17;7.13;;;;;;;14.41;85.82;101848.50;4971205;28;20058;-82
2022/07/14 05:00:38;;;;;;;20.15;6.97;;;;;;;14.43;85.81;101848.44;4965750;28;20475;-82
2022/07/14 05:03:03;;;;;;;12.63;6.68;;;;;;;14.43;85.46;101841.25;4970646;28;20084;-82
2022/07/14 05:05:29;;;;;;;15.93;6.30;;;;;;;14.53;85.16;101844.34;4968740;28;20049;-82
2022/07/14 05:07:54;;;;;;;16.67;6.22;;;;;;;14.63;84.79;101852.78;4969477;28;20101;-82
2022/07/14 05:10:20;;;;;;;17.85;6.85;;;;;;;14.72;84.55;101863.03;4967603;28;20537;-82
2022/07/14 05:12:45;;;;;;;15.20;6.88;;;;;;;14.80;84.33;101863.50;4969447;28;20132;-82
2022/07/14 05:15:11;;;;;;;12.48;6.30;;;;;;;14.85;84.10;101864.13;4970686;28;20161;-82
2022/07/14 05:17:36;;;;;;;11.35;6.13;;;;;;;14.98;83.57;101868.84;4970996;28;20031;-82
2022/07/14 05:20:02;;;;;;;16.17;6.20;;;;;;;15.04;82.70;101882.78;4968362;28;20026;-82
2022/07/14 05:22:34;;;;;;;14.93;6.22;;;;;;;15.13;82.56;101871.59;4968740;28;20034;-82
2022/07/14 05:24:59;;;;;;;16.58;6.13;;;;;;;15.16;82.07;101865.16;4971345;28;20031;-82
2022/07/14 05:27:27;;;;;;;17.13;6.03;;;;;;;15.19;81.35;101860.50;4983771;28;20034;-82
2022/07/14 05:29:52;;;;;;;15.60;6.60;;;;;;;15.27;81.69;101864.59;4992686;28;20047;-81
2022/07/14 05:32:18;;;;;;;15.57;5.43;;;;;;;15.34;81.67;101861.50;4992699;28;20043;-82
2022/07/14 05:34:44;;;;;;;16.92;5.72;;;;;;;15.42;81.58;101859.28;4995658;28;20026;-82
2022/07/14 05:37:11;;;;;;;17.70;6.05;;;;;;;15.56;80.88;101868.38;4980239;28;20133;-82
2022/07/14 05:39:37;;;;;;;16.05;5.70;;;;;;;15.59;79.65;101862.81;4970714;28;20089;-82
2022/07/14 05:42:03;;;;;;;12.88;5.60;;;;;;;15.56;79.21;101863.88;4971347;28;20041;-82
2022/07/14 05:44:28;;;;;;;14.77;6.07;;;;;;;15.56;78.70;101860.31;4968850;28;20035;-81
2022/07/14 05:46:54;;;;;;;17.20;5.78;;;;;;;15.69;78.82;101864.09;4981957;28;20165;-81
2022/07/14 05:49:19;;;;;;;14.68;5.65;;;;;;;15.82;78.69;101865.13;4969371;28;20027;-80
2022/07/14 05:51:44;;;;;;;15.38;5.38;;;;;;;15.93;78.12;101853.78;4969093;28;20476;-81
2022/07/14 05:54:10;;;;;;;17.95;5.35;;;;;;;16.10;77.77;101858.19;4980083;28;20035;-81
2022/07/14 05:56:35;;;;;;;15.82;5.43;;;;;;;16.37;77.01;101872.66;4957968;28;20453;-81
2022/07/14 05:59:01;;;;;;;14.60;5.75;;;;;;;16.62;75.67;101865.84;4971550;28;20038;-82
2022/07/14 06:01:26;;;;;;;13.13;4.80;;;;;;;16.86;75.03;101875.16;4967519;28;20067;-82
2022/07/14 06:03:56;;;;;;;12.80;4.25;;;;;;;17.10;73.41;101880.00;4965466;28;20045;-82
2022/07/14 06:06:22;;;;;;;12.80;4.40;;;;;;;17.15;72.25;101875.19;4974460;28;20031;-82
2022/07/14 06:08:47;;;;;;;11.30;4.40;;;;;;;17.25;72.11;101867.41;4971495;28;20218;-81
2022/07/14 06:11:13;;;;;;;13.25;4.20;;;;;;;17.37;71.82;101856.72;4973756;28;20046;-82
2022/07/14 06:13:40;;;;;;;14.20;4.28;;;;;;;17.43;70.77;101853.66;4969406;28;20488;-82
2022/07/14 06:16:06;;;;;;;14.65;4.53;;;;;;;17.47;70.06;101848.06;4970941;28;20038;-81
2022/07/14 06:18:32;;;;;;;12.40;4.10;;;;;;;17.69;69.76;101848.41;4971508;28;20035;-82
2022/07/14 06:20:57;;;;;;;11.25;3.85;;;;;;;17.96;68.88;101842.22;4968034;28;20030;-82
2022/07/14 06:23:23;;;;;;;16.88;3.92;;;;;;;18.24;67.78;101850.19;4971582;28;20029;-82
2022/07/14 06:25:48;;;;;;;14.80;4.00;;;;;;;18.39;67.24;101843.78;4970939;28;20026;-82
2022/07/14 06:28:13;;;;;;;11.85;3.88;;;;;;;18.60;66.94;101852.22;4969584;28;20058;-82
2022/07/14 06:30:40;;;;;;;15.32;3.78;;;;;;;18.77;65.58;101855.59;4969316;28;20043;-82
2022/07/14 06:33:05;;;;;;;13.57;3.90;;;;;;;18.69;65.37;101853.44;4974121;28;20027;-82
2022/07/14 06:35:31;;;;;;;12.05;3.88;;;;;;;18.73;65.54;101843.28;4969137;28;20070;-81
2022/07/14 06:37:56;;;;;;;10.07;3.90;;;;;;;18.65;64.91;101831.19;4970350;28;20034;-81
2022/07/14 06:40:22;;;;;;;12.43;3.90;;;;;;;18.64;64.45;101840.25;4964478;28;20065;-83
2022/07/14 06:42:48;;;;;;;13.15;3.60;;;;;;;18.86;64.90;101844.19;4974362;28;20038;-82
2022/07/14 06:45:14;;;;;;;15.75;4.47;;;;;;;19.02;63.60;101857.44;4965428;28;20031;-82
2022/07/14 06:47:39;;;;;;;11.90;3.05;;;;;;;19.25;61.60;101855.84;4965403;28;20053;-82
2022/07/14 06:50:06;;;;;;;16.17;3.05;;;;;;;19.45;62.40;101862.50;4971096;28;20121;-82
2022/07/14 06:52:32;;;;;;;10.52;3.00;;;;;;;19.48;61.54;101860.47;4966700;28;20042;-82
2022/07/14 06:54:58;;;;;;;13.05;2.85;;;;;;;19.50;61.39;101853.09;4970769;28;20354;-82
2022/07/14 06:57:23;;;;;;;9.85;2.95;;;;;;;19.73;60.90;101870.38;4970866;28;20038;-82
2022/07/14 06:59:49;;;;;;;13.57;3.40;;;;;;;19.78;59.14;101868.19;4969670;28;20027;-81
2022/07/14 07:02:14;;;;;;;10.00;2.60;;;;;;;19.84;59.59;101859.63;4967172;28;20477;-81
2022/07/14 07:04:39;;;;;;;17.48;3.22;;;;;;;19.90;58.40;101844.81;4968186;28;20046;-82
2022/07/14 07:07:04;;;;;;;12.40;3.33;;;;;;;20.03;58.42;101855.56;4964361;28;20014;-81
2022/07/14 07:09:30;;;;;;;11.73;2.67;;;;;;;20.14;59.17;101859.16;4964119;28;20031;-82
2022/07/14 07:11:55;;;;;;;12.15;3.35;;;;;;;20.32;58.83;101854.22;4966262;28;20364;-82
2022/07/14 07:14:21;;;;;;;10.73;3.00;;;;;;;20.29;57.11;101851.75;4969050;28;20053;-82
2022/07/14 07:16:49;;;;;;;10.02;2.92;;;;;;;20.35;56.48;101856.69;4971894;28;20030;-81
2022/07/14 07:19:15;;;;;;;11.23;3.47;;;;;;;20.53;56.89;101859.00;4968155;28;20501;-82
2022/07/14 07:21:41;;;;;;;8.73;2.90;;;;;;;20.70;57.03;101852.31;4970217;28;20404;-82
2022/07/14 07:24:06;;;;;;;12.98;4.03;;;;;;;20.91;56.22;101852.47;4970096;28;20022;-82
2022/07/14 07:26:35;;;;;;;10.55;3.10;;;;;;;21.20;54.51;101859.13;4969736;28;20295;-81
2022/07/14 07:29:00;;;;;;;11.57;3.67;;;;;;;21.24;53.08;101859.75;4981182;28;20077;-81
2022/07/14 07:31:26;;;;;;;13.82;3.40;;;;;;;21.29;53.78;101852.13;4966035;28;20121;-81
2022/07/14 07:33:51;;;;;;;16.20;8.45;;;;;;;21.53;51.60;101855.59;4971144;28;20537;-80
2022/07/14 07:36:17;;;;;;;11.80;3.75;;;;;;;21.74;51.70;101852.97;4969205;28;20131;-82
2022/07/14 07:38:43;;;;;;;15.45;3.90;;;;;;;21.86;51.24;101851.97;4965911;28;20033;-82
2022/07/14 07:41:09;;;;;;;7.35;3.03;;;;;;;22.24;50.19;101850.66;4970595;28;20034;-82
2022/07/14 07:43:35;;;;;;;13.00;3.45;;;;;;;22.33;48.29;101846.31;4969269;28;20031;-81
2022/07/14 07:46:02;;;;;;;8.45;3.10;;;;;;;22.65;47.91;101837.25;4968520;28;20027;-82
2022/07/14 07:48:28;;;;;;;8.13;3.33;;;;;;;22.98;46.01;101847.06;4976249;28;20045;-82
2022/07/14 07:50:55;;;;;;;10.65;3.22;;;;;;;23.10;46.52;101843.25;4974836;28;20348;-82
2022/07/14 07:53:20;;;;;;;12.48;4.38;;;;;;;23.08;46.33;101818.13;4966700;28;20066;-80
2022/07/14 07:55:45;;;;;;;11.13;4.00;;;;;;;23.23;45.48;101822.16;4967198;28;20097;-81
2022/07/14 07:58:11;;;;;;;8.93;3.40;;;;;;;23.81;44.95;101816.94;4965530;28;20039;-81
2022/07/14 08:00:36;;;;;;;9.57;3.78;;;;;;;24.42;44.49;101817.72;4966814;28;20034;-83
2022/07/14 08:03:03;;;;;;;7.97;3.45;;;;;;;24.77;42.04;101811.63;4967694;28;20022;-84
2022/07/14 08:05:29;;;;;;;10.68;5.18;;;;;;;25.02;41.83;101816.41;4965802;28;20041;-83
2022/07/14 08:07:55;;;;;;;7.38;3.40;;;;;;;25.68;41.64;101825.47;4967242;28;20030;-83
2022/07/14 08:10:21;;;;;;;11.68;3.95;;;;;;;25.68;40.44;101820.03;4977213;28;20030;-82
2022/07/14 08:12:47;;;;;;;13.43;3.85;;;;;;;25.80;39.59;101819.69;4967795;28;20035;-83
2022/07/14 08:15:13;;;;;;;9.57;3.40;;;;;;;25.98;39.91;101813.38;4966375;28;20393;-83
2022/07/14 08:17:39;;;;;;;9.50;3.72;;;;;;;26.12;39.10;101812.81;4969211;28;20034;-83
2022/07/14 08:20:07;;;;;;;11.52;3.70;;;;;;;26.53;38.69;101805.03;4967924;28;20037;-82
2022/07/14 08:22:33;;;;;;;10.52;4.05;;;;;;;26.79;37.78;101810.47;4967039;28;20608;-83
2022/07/14 08:24:58;;;;;;;9.68;3.75;;;;;;;26.85;38.11;101811.75;4970807;28;20022;-84
2022/07/14 08:27:24;;;;;;;12.00;4.20;;;;;;;27.25;37.56;101808.38;4970872;28;20081;-83
2022/07/14 08:29:50;;;;;;;8.85;3.47;;;;;;;27.49;36.94;101805.75;4970899;28;20118;-82
2022/07/14 08:32:16;;;;;;;9.48;3.97;;;;;;;27.92;36.07;101802.97;4965951;28;20050;-83
2022/07/14 08:34:41;;;;;;;10.18;4.13;;;;;;;27.92;36.54;101794.78;4971091;28;20034;-82
2022/07/14 08:37:07;;;;;;;9.93;4.50;;;;;;;28.16;35.98;101794.81;4965630;28;20042;-82
2022/07/14 08:39:32;;;;;;;7.75;3.92;;;;;;;28.58;35.04;101790.19;4967062;28;20042;-83
2022/07/14 08:42:02;;;;;;;10.20;4.00;;;;;;;28.39;34.58;101799.66;4964048;28;20439;-82
2022/07/14 08:44:29;;;;;;;10.50;3.97;;;;;;;28.35;34.42;101811.94;4969328;28;20045;-83
2022/07/14 08:46:56;;;;;;;8.10;4.13;;;;;;;28.69;34.72;101801.66;4979110;28;20027;-83
2022/07/14 08:49:22;;;;;;;6.63;3.08;;;;;;;29.27;32.16;101799.66;4966399;28;20042;-84
2022/07/14 08:51:49;;;;;;;8.20;3.17;;;;;;;30.02;31.52;101801.81;4971531;28;20027;-84
2022/07/14 08:54:16;;;;;;;9.23;3.58;;;;;;;30.38;30.63;101799.31;4966216;28;20138;-83
2022/07/14 08:56:41;;;;;;;9.90;3.97;;;;;;;30.57;30.70;101792.44;4973429;28;20058;-84
2022/07/14 08:59:08;;;;;;;10.27;4.10;;;;;;;30.59;29.67;101801.34;4966973;28;20027;-83
2022/07/14 09:01:33;;;;;;;5.70;2.90;;;;;;;31.16;29.25;101816.41;4961184;28;20121;-83
2022/07/14 09:03:59;;;;;;;14.15;7.68;;;;;;;31.30;28.59;101811.97;4961219;28;20039;-82
2022/07/14 09:07:00;;;;;;;9.75;3.28;;;;;;;31.54;29.27;101811.66;4972032;28;20110;-84
2022/07/14 09:09:34;;;;;;;6.47;3.05;;;;;;;31.58;28.65;101812.13;5004981;28;20026;-84
2022/07/14 09:12:07;;;;;;;8.77;3.22;;;;;;;31.24;28.77;101806.16;5005493;28;20041;-83
2022/07/14 09:17:21;;;;;;;8.48;3.20;;;;;;;32.06;26.07;101810.56;5005657;28;20072;-83
2022/07/14 09:20:13;;;;;;;8.88;3.05;;;;;;;32.15;27.60;101803.91;5009536;28;20030;-83
2022/07/14 09:22:40;;;;;;;7.97;3.20;;;;;;;31.62;25.89;101799.69;4992806;28;20037;-83
2022/07/14 09:25:09;;;;;;;6.05;2.90;;;;;;;32.03;25.74;101797.19;5010100;28;20034;-83
2022/07/14 09:27:35;;;;;;;5.90;2.58;;;;;;;32.66;25.16;101789.94;5012298;28;20049;-82
2022/07/14 09:30:00;;;;;;;5.00;2.90;;;;;;;32.99;24.86;101799.53;5012196;28;20092;-84
2022/07/14 09:32:44;;;;;;;6.85;2.70;;;;;;;33.41;26.40;101804.81;5006504;28;20042;-83
2022/07/14 09:35:11;;;;;;;9.15;2.60;;;;;;;33.49;24.60;101816.78;5007356;28;20117;-83
2022/07/14 09:37:38;;;;;;;5.40;2.58;;;;;;;33.70;23.35;101800.91;5005978;28;20041;-82
2022/07/14 09:40:04;;;;;;;6.03;2.30;;;;;;;33.89;22.39;101798.41;5004896;28;20037;-83
2022/07/14 09:42:54;;;;;;;6.80;2.20;;;;;;;34.66;24.58;101802.56;5000583;28;20108;-83
2022/07/14 09:45:25;;;;;;;4.15;1.90;;;;;;;34.54;22.28;101787.69;4963873;28;20069;-83
2022/07/14 09:47:57;;;;;;;6.93;2.05;;;;;;;35.02;21.84;101796.53;4970792;28;20038;-83
2022/07/14 09:50:37;;;;;;;5.30;2.00;;;;;;;35.42;22.89;101788.97;4967566;28;20055;-83
2022/07/14 09:53:25;;;;;;;3.85;2.03;;;;;;;36.14;22.84;101800.72;4968227;28;20043;-83
2022/07/14 09:55:56;;;;;;;4.97;2.05;;;;;;;35.68;20.12;101795.44;4968090;28;20035;-83
2022/07/14 09:58:23;;;;;;;7.45;1.98;;;;;;;35.72;19.66;101793.94;4965909;28;20113;-83
2022/07/14 10:00:58;;;;;;;4.25;1.98;;;;;;;36.28;19.38;101792.28;4967495;28;20022;-84
2022/07/14 10:03:25;;;;;;;5.28;3.15;;;;;;;36.79;18.24;101797.63;4963355;28;20035;-82
2022/07/14 10:05:53;;;;;;;5.93;2.60;;;;;;;36.73;18.96;101797.69;4969936;28;20034;-81
2022/07/14 10:08:23;;;;;;;6.43;1.95;;;;;;;36.52;18.83;101788.69;4962111;28;20031;-83
2022/07/14 10:10:50;;;;;;;3.40;1.58;;;;;;;35.74;19.00;101800.09;4963389;28;20031;-83
2022/07/14 10:13:19;;;;;;;5.22;1.67;;;;;;;34.94;17.92;101799.50;4969874;28;20118;-85
2022/07/14 10:15:47;;;;;;;3.67;1.48;;;;;;;34.37;20.04;101796.38;4967950;28;20045;-83
2022/07/14 10:18:13;;;;;;;5.07;2.20;;;;;;;33.31;20.79;101811.75;4968513;28;20026;-83
2022/07/14 10:20:40;;;;;;;5.35;1.60;;;;;;;31.85;22.17;101802.28;4955235;28;20035;-82
2022/07/14 10:23:05;;;;;;;3.45;1.60;;;;;;;30.63;23.60;101804.56;4957365;28;20022;-82
2022/07/14 10:25:32;;;;;;;3.78;1.60;;;;;;;29.62;24.72;101808.41;4966145;28;20035;-83
2022/07/14 10:27:57;;;;;;;5.38;1.40;;;;;;;28.80;26.26;101800.41;4965148;28;20018;-83
2022/07/14 10:31:06;;;;;;;3.20;1.40;;;;;;;28.48;27.48;101806.81;4983280;28;20473;-83
2022/07/14 10:33:53;;;;;;;6.20;1.65;;;;;;;28.09;28.63;101809.34;4971812;28;20078;-82
2022/07/14 10:36:51;;;;;;;4.43;1.88;;;;;;;28.16;28.67;101810.38;4969793;28;20046;-82
2022/07/14 10:39:40;;;;;;;9.13;2.10;;;;;;;28.46;28.56;101809.72;4967904;28;20378;-83
2022/07/14 10:42:34;;;;;;;4.60;1.75;;;;;;;29.12;28.34;101820.59;4967134;28;20198;-83
2022/07/14 10:45:04;;;;;;;5.53;1.98;;;;;;;28.70;28.71;101818.94;4968325;28;20034;-82
2022/07/14 10:47:48;;;;;;;6.93;2.47;;;;;;;28.50;29.33;101804.75;4967396;28;20065;-80
2022/07/14 10:50:27;;;;;;;6.10;2.22;;;;;;;28.12;29.47;101809.00;4959751;28;20035;-82
2022/07/14 10:52:52;;;;;;;5.75;2.30;;;;;;;27.63;30.30;101811.59;4966059;28;20484;-81
2022/07/14 10:55:23;;;;;;;6.80;2.17;;;;;;;28.11;30.75;101807.28;4967610;28;20058;-81
2022/07/14 10:58:05;;;;;;;6.78;2.38;;;;;;;29.54;28.94;101809.28;4962317;28;20097;-82
2022/07/14 11:00:55;;;;;;;3.97;1.70;;;;;;;29.88;27.88;101808.94;4963512;28;20023;-81
2022/07/14 11:03:20;;;;;;;6.05;1.92;;;;;;;30.47;25.97;101789.09;4967864;28;20488;-81
2022/07/14 11:06:01;;;;;;;4.53;2.13;;;;;;;32.83;25.07;101792.38;4964900;28;20070;-81
2022/07/14 11:08:26;;;;;;;4.60;2.03;;;;;;;35.01;21.38;101794.84;4967214;28;20134;-81
2022/07/14 11:10:57;;;;;;;5.90;1.90;;;;;;;36.35;20.83;101793.09;4967351;28;20058;-82
2022/07/14 11:13:23;;;;;;;8.15;1.75;;;;;;;37.03;19.46;101793.09;4967417;28;20404;-82
2022/07/14 11:15:53;;;;;;;4.32;1.65;;;;;;;36.77;19.69;101807.25;4966308;28;20054;-82
2022/07/14 11:18:18;;;;;;;5.63;1.48;;;;;;;36.82;17.95;101804.63;4965889;28;20059;-82
2022/07/14 11:21:07;;;;;;;7.05;1.77;;;;;;;35.57;20.37;101805.28;4965651;28;20079;-82
2022/07/14 11:23:51;;;;;;;3.63;1.40;;;;;;;34.76;21.32;101805.72;4967082;28;20097;-82
2022/07/14 11:26:37;;;;;;;3.60;1.50;;;;;;;35.41;20.75;101806.63;4962781;28;20046;-82
2022/07/14 11:29:07;;;;;;;4.78;1.70;;;;;;;35.52;19.86;101804.28;4967120;28;20026;-81